createdAt,value
2023-04-18T00:00:32.013Z,11.42
2023-04-18T00:03:00.911Z,11.30
2023-04-18T00:05:29.733Z,11.49
2023-04-18T00:07:56.633Z,11.56
2023-04-18T00:10:23.190Z,11.21
2023-04-18T00:12:49.680Z,11.32
2023-04-18T00:15:16.209Z,11.46
2023-04-18T00:17:42.931Z,11.54
2023-04-18T00:20:11.156Z,11.37
2023-04-18T00:22:42.404Z,11.35
2023-04-18T00:25:09.163Z,11.00
2023-04-18T00:27:35.502Z,11.00
2023-04-18T00:30:01.889Z,11.18
2023-04-18T00:32:28.402Z,11.13
2023-04-18T00:34:54.845Z,11.11
2023-04-18T00:37:21.222Z,11.19
2023-04-18T00:39:49.038Z,10.91
2023-04-18T00:42:15.405Z,10.97
2023-04-18T00:44:41.738Z,11.06
2023-04-18T00:47:09.488Z,11.12
2023-04-18T00:49:35.865Z,10.68
2023-04-18T00:52:02.205Z,10.94
2023-04-18T00:54:28.529Z,10.81
2023-04-18T00:56:54.905Z,10.76
2023-04-18T00:59:22.043Z,10.97
2023-04-18T01:01:48.466Z,10.89
2023-04-18T01:04:15.278Z,11.16
2023-04-18T01:06:44.001Z,10.90
2023-04-18T01:09:10.836Z,11.17
2023-04-18T01:11:37.186Z,10.72
2023-04-18T01:14:03.638Z,10.99
2023-04-18T01:16:30.060Z,11.09
2023-04-18T01:18:57.018Z,11.18
2023-04-18T01:21:23.431Z,10.72
2023-04-18T01:23:49.836Z,10.47
2023-04-18T01:26:16.229Z,10.76
2023-04-18T01:28:42.620Z,10.99
2023-04-18T01:31:09.007Z,10.58
2023-04-18T01:33:36.558Z,10.73
2023-04-18T01:36:02.938Z,10.51
2023-04-18T01:38:30.478Z,11.01
2023-04-18T01:40:56.922Z,10.95
2023-04-18T01:43:23.217Z,11.01
2023-04-18T01:45:49.600Z,10.71
2023-04-18T01:48:15.998Z,10.92
2023-04-18T01:50:42.503Z,10.81
2023-04-18T01:53:10.275Z,10.68
2023-04-18T01:55:36.885Z,10.49
2023-04-18T01:58:03.224Z,10.39
2023-04-18T02:00:29.655Z,10.41
2023-04-18T02:02:56.252Z,10.06
2023-04-18T02:05:22.723Z,10.70
2023-04-18T02:07:50.208Z,10.17
2023-04-18T02:10:17.128Z,10.30
2023-04-18T02:12:44.829Z,10.67
2023-04-18T02:15:11.191Z,10.30
2023-04-18T02:17:37.962Z,10.23
2023-04-18T02:20:04.389Z,10.31
2023-04-18T02:22:30.946Z,10.06
2023-04-18T02:25:00.130Z,10.04
2023-04-18T02:27:26.529Z,10.00
2023-04-18T02:29:56.522Z,9.75
2023-04-18T02:32:22.959Z,9.56
2023-04-18T02:34:49.328Z,9.78
2023-04-18T02:37:16.068Z,10.01
2023-04-18T02:39:42.416Z,9.50
2023-04-18T02:42:08.803Z,9.31
2023-04-18T02:44:35.288Z,9.20
2023-04-18T02:47:01.817Z,9.22
2023-04-18T02:49:29.269Z,9.36
2023-04-18T02:51:58.694Z,9.37
2023-04-18T02:54:25.129Z,9.17
2023-04-18T02:57:11.795Z,9.33
2023-04-18T02:59:46.994Z,9.13
2023-04-18T03:02:30.858Z,9.01
2023-04-18T03:05:04.044Z,9.21
2023-04-18T03:07:30.913Z,9.26
2023-04-18T03:09:58.438Z,9.22
2023-04-18T03:12:29.645Z,9.01
2023-04-18T03:14:56.327Z,9.23
2023-04-18T03:17:23.109Z,9.40
2023-04-18T03:19:49.817Z,9.10
2023-04-18T03:22:19.231Z,9.00
2023-04-18T03:24:52.368Z,9.17
2023-04-18T03:27:20.376Z,9.14
2023-04-18T03:29:47.446Z,8.91
2023-04-18T03:32:14.650Z,9.24
2023-04-18T03:34:40.989Z,9.46
2023-04-18T03:37:08.368Z,9.09
2023-04-18T03:39:40.788Z,9.38
2023-04-18T03:42:07.688Z,9.64
2023-04-18T03:44:34.822Z,9.67
2023-04-18T03:47:01.280Z,9.21
2023-04-18T03:49:29.885Z,9.42
2023-04-18T03:51:56.490Z,9.06
2023-04-18T03:54:24.163Z,9.10
2023-04-18T03:56:50.564Z,9.06
2023-04-18T03:59:17.854Z,9.31
2023-04-18T04:01:48.599Z,8.91
2023-04-18T04:04:15.781Z,9.16
2023-04-18T04:06:42.615Z,8.87
2023-04-18T04:09:08.990Z,9.07
2023-04-18T04:11:35.496Z,9.17
2023-04-18T04:14:02.400Z,9.55
2023-04-18T04:16:34.983Z,9.10
2023-04-18T04:19:02.239Z,9.11
2023-04-18T04:21:36.242Z,9.05
2023-04-18T04:24:03.890Z,9.14
2023-04-18T04:26:35.765Z,8.55
2023-04-18T04:29:11.721Z,8.89
2023-04-18T04:31:39.102Z,8.83
2023-04-18T04:34:06.216Z,9.10
2023-04-18T04:36:33.437Z,8.77
2023-04-18T04:39:04.219Z,9.03
2023-04-18T04:41:53.485Z,8.85
2023-04-18T04:44:26.109Z,8.98
2023-04-18T04:46:54.526Z,9.13
2023-04-18T04:49:25.851Z,8.84
2023-04-18T04:51:52.250Z,9.12
2023-04-18T04:54:19.954Z,9.13
2023-04-18T04:56:46.296Z,9.69
2023-04-18T04:59:12.983Z,9.33
2023-04-18T05:01:41.463Z,9.68
2023-04-18T05:04:07.990Z,9.30
2023-04-18T05:06:34.386Z,9.61
2023-04-18T05:09:01.200Z,9.80
2023-04-18T05:11:27.678Z,9.88
2023-04-18T05:13:54.062Z,9.85
2023-04-18T05:16:20.880Z,9.39
2023-04-18T05:18:47.251Z,9.65
2023-04-18T05:21:13.701Z,9.55
2023-04-18T05:23:40.080Z,9.69
2023-04-18T05:26:06.484Z,9.97
2023-04-18T05:28:32.840Z,10.14
2023-04-18T05:31:02.193Z,10.44
2023-04-18T05:33:28.703Z,10.26
2023-04-18T05:35:55.546Z,10.34
2023-04-18T05:38:21.982Z,10.29
2023-04-18T05:40:51.051Z,10.34
2023-04-18T05:43:17.530Z,10.51
2023-04-18T05:45:43.903Z,10.54
2023-04-18T05:48:10.318Z,11.11
2023-04-18T05:50:36.777Z,10.57
2023-04-18T05:53:03.161Z,10.75
2023-04-18T05:55:29.513Z,10.99
2023-04-18T05:57:55.903Z,10.92
2023-04-18T06:00:22.320Z,10.38
2023-04-18T06:02:49.664Z,10.13
2023-04-18T06:05:16.638Z,11.01
2023-04-18T06:07:43.168Z,10.96
2023-04-18T06:10:13.227Z,11.14
2023-04-18T06:12:39.666Z,10.90
2023-04-18T06:15:06.495Z,10.99
2023-04-18T06:17:33.694Z,10.95
2023-04-18T06:20:00.170Z,11.33
2023-04-18T06:22:26.547Z,11.12
2023-04-18T06:24:55.325Z,11.08
2023-04-18T06:27:30.466Z,11.17
2023-04-18T06:29:58.106Z,11.28
2023-04-18T06:32:24.736Z,11.10
2023-04-18T06:34:52.973Z,11.09
2023-04-18T06:37:19.457Z,11.18
2023-04-18T06:39:46.037Z,10.94
2023-04-18T06:42:12.461Z,10.81
2023-04-18T06:44:44.146Z,10.81
2023-04-18T06:47:10.574Z,10.63
2023-04-18T06:49:37.102Z,11.54
2023-04-18T06:52:03.590Z,11.14
2023-04-18T06:54:30.015Z,11.23
2023-04-18T06:56:57.279Z,10.85
2023-04-18T06:59:23.706Z,10.82
2023-04-18T07:01:50.725Z,11.02
2023-04-18T07:04:17.430Z,10.44
2023-04-18T07:06:44.083Z,10.51
2023-04-18T07:09:10.477Z,11.24
2023-04-18T07:11:36.894Z,11.31
2023-04-18T07:14:03.405Z,10.56
2023-04-18T07:16:30.007Z,11.06
2023-04-18T07:18:56.500Z,10.70
2023-04-18T07:21:23.829Z,11.27
2023-04-18T07:23:50.234Z,11.34
2023-04-18T07:26:16.632Z,11.55
2023-04-18T07:28:43.028Z,11.77
2023-04-18T07:31:11.489Z,11.51
2023-04-18T07:33:38.014Z,11.33
2023-04-18T07:36:04.415Z,11.39
2023-04-18T07:38:30.810Z,11.87
2023-04-18T07:40:57.226Z,11.76
2023-04-18T07:43:23.640Z,11.66
2023-04-18T07:45:50.010Z,11.27
2023-04-18T07:48:16.797Z,11.71
2023-04-18T07:50:43.253Z,11.39
2023-04-18T07:53:09.634Z,12.02
2023-04-18T07:55:36.431Z,11.91
2023-04-18T07:58:02.787Z,12.69
2023-04-18T08:00:32.485Z,12.61
2023-04-18T08:02:59.038Z,12.38
2023-04-18T08:05:25.781Z,11.92
2023-04-18T08:07:52.824Z,12.50
2023-04-18T08:10:19.202Z,11.90
2023-04-18T08:12:45.584Z,12.12
2023-04-18T08:15:11.945Z,11.79
2023-04-18T08:17:39.010Z,11.15
2023-04-18T08:20:08.538Z,11.71
2023-04-18T08:22:35.921Z,11.80
2023-04-18T08:25:05.976Z,12.26
2023-04-18T08:27:32.524Z,12.36
2023-04-18T08:29:58.962Z,12.68
2023-04-18T08:32:25.376Z,12.51
2023-04-18T08:34:51.793Z,12.89
2023-04-18T08:37:18.222Z,12.32
2023-04-18T08:39:45.076Z,11.37
2023-04-18T08:42:11.797Z,11.63
2023-04-18T08:44:38.223Z,12.64
2023-04-18T08:47:04.569Z,12.34
2023-04-18T08:49:31.370Z,12.26
2023-04-18T08:51:57.948Z,12.91
2023-04-18T08:54:25.583Z,12.98
2023-04-18T08:56:53.599Z,12.77
2023-04-18T08:59:20.512Z,11.87
2023-04-18T09:01:48.386Z,12.92
2023-04-18T09:04:15.006Z,12.34
2023-04-18T09:06:42.805Z,12.01
2023-04-18T09:09:09.174Z,11.63
2023-04-18T09:11:35.700Z,11.70
2023-04-18T09:14:02.465Z,11.52
2023-04-18T09:16:29.773Z,11.70
2023-04-18T09:18:56.181Z,11.77
2023-04-18T09:21:22.531Z,12.30
2023-04-18T09:23:50.336Z,12.54
2023-04-18T09:26:16.743Z,12.63
2023-04-18T09:28:43.184Z,12.31
2023-04-18T09:31:10.219Z,13.19
2023-04-18T09:33:37.034Z,12.99
2023-04-18T09:36:03.634Z,12.20
2023-04-18T09:38:30.049Z,11.86
2023-04-18T09:40:56.389Z,12.05
2023-04-18T09:43:22.867Z,11.84
2023-04-18T09:45:49.365Z,12.36
2023-04-18T09:48:16.012Z,12.92
2023-04-18T09:50:42.403Z,11.60
2023-04-18T09:53:08.896Z,11.99
2023-04-18T09:55:35.290Z,12.68
2023-04-18T09:58:01.647Z,12.62
2023-04-18T10:00:28.037Z,12.52
2023-04-18T10:02:54.567Z,12.92
2023-04-18T10:05:21.446Z,12.90
2023-04-18T10:07:47.942Z,13.19
2023-04-18T10:10:14.493Z,11.70
2023-04-18T10:12:41.284Z,12.47
2023-04-18T10:15:07.697Z,12.63
2023-04-18T10:17:34.089Z,12.19
2023-04-18T10:20:00.477Z,12.44
2023-04-18T10:22:26.887Z,12.77
2023-04-18T10:24:53.617Z,12.68
2023-04-18T10:27:20.194Z,12.77
2023-04-18T10:29:46.554Z,13.37
2023-04-18T10:32:12.954Z,13.30
2023-04-18T10:34:39.363Z,12.98
2023-04-18T10:37:05.882Z,13.77
2023-04-18T10:39:32.374Z,12.76
2023-04-18T10:41:58.855Z,13.31
2023-04-18T10:44:25.630Z,13.50
2023-04-18T10:46:52.288Z,13.30
2023-04-18T10:49:18.764Z,13.53
2023-04-18T10:51:45.291Z,13.16
2023-04-18T10:54:11.752Z,13.31
2023-04-18T10:56:39.184Z,13.41
2023-04-18T10:59:05.653Z,12.92
2023-04-18T11:01:33.154Z,13.31
2023-04-18T11:03:59.831Z,13.69
2023-04-18T11:06:31.173Z,13.97
2023-04-18T11:08:57.546Z,14.35
2023-04-18T11:11:24.603Z,13.99
2023-04-18T11:13:51.035Z,13.86
2023-04-18T11:16:17.484Z,13.46
2023-04-18T11:18:43.815Z,14.29
2023-04-18T11:21:10.225Z,13.62
2023-04-18T11:23:36.668Z,14.28
2023-04-18T11:26:03.271Z,14.28
2023-04-18T11:28:29.770Z,13.78
2023-04-18T11:30:56.168Z,13.58
2023-04-18T11:33:22.712Z,13.80
2023-04-18T11:35:49.197Z,14.83
2023-04-18T11:38:16.850Z,14.93
2023-04-18T11:40:43.261Z,14.57
2023-04-18T11:43:09.619Z,13.99
2023-04-18T11:45:36.133Z,14.83
2023-04-18T11:48:02.618Z,14.85
2023-04-18T11:50:29.051Z,14.01
2023-04-18T11:52:55.572Z,14.26
2023-04-18T11:55:22.023Z,14.87
2023-04-18T11:57:48.413Z,15.12
2023-04-18T12:00:14.971Z,14.29
2023-04-18T12:02:41.699Z,14.23
2023-04-18T12:05:08.540Z,14.64
2023-04-18T12:07:35.907Z,14.38
2023-04-18T12:10:02.473Z,14.86
2023-04-18T12:12:29.036Z,14.80
2023-04-18T12:14:55.383Z,14.49
2023-04-18T12:17:21.774Z,15.30
2023-04-18T12:19:49.840Z,15.61
2023-04-18T12:22:16.844Z,14.55
2023-04-18T12:24:43.354Z,14.72
2023-04-18T12:27:11.896Z,14.76
2023-04-18T12:29:38.300Z,14.79
2023-04-18T12:32:04.731Z,14.38
2023-04-18T12:34:31.078Z,14.62
2023-04-18T12:36:57.463Z,15.12
2023-04-18T12:39:23.831Z,14.52
2023-04-18T12:41:50.260Z,13.94
2023-04-18T12:44:16.786Z,14.76
2023-04-18T12:46:43.279Z,14.22
2023-04-18T12:49:09.704Z,14.87
2023-04-18T12:51:36.066Z,15.21
2023-04-18T12:54:02.512Z,14.96
2023-04-18T12:56:28.858Z,15.10
2023-04-18T12:58:55.181Z,15.40
2023-04-18T13:01:21.977Z,15.36
2023-04-18T13:03:53.678Z,15.53
2023-04-18T13:06:26.588Z,15.44
2023-04-18T13:08:52.961Z,14.96
2023-04-18T13:11:20.531Z,15.68
2023-04-18T13:13:46.921Z,15.65
2023-04-18T13:16:13.286Z,15.62
2023-04-18T13:18:39.667Z,15.83
2023-04-18T13:21:06.196Z,14.69
2023-04-18T13:23:32.565Z,14.51
2023-04-18T13:25:58.936Z,14.63
2023-04-18T13:28:25.329Z,15.76
2023-04-18T13:30:51.693Z,15.87
2023-04-18T13:33:18.214Z,15.52
2023-04-18T13:35:44.991Z,15.33
2023-04-18T13:38:11.360Z,15.47
2023-04-18T13:40:38.816Z,15.36
2023-04-18T13:43:05.311Z,15.03
2023-04-18T13:45:31.634Z,14.92
2023-04-18T13:47:58.068Z,14.86
2023-04-18T13:50:24.534Z,15.15
2023-04-18T13:52:52.010Z,15.47
2023-04-18T13:55:18.741Z,15.13
2023-04-18T13:57:45.831Z,15.63
2023-04-18T14:00:14.111Z,15.40
2023-04-18T14:02:40.661Z,15.09
2023-04-18T14:05:07.388Z,15.22
2023-04-18T14:07:33.999Z,14.93
2023-04-18T14:10:00.687Z,15.16
2023-04-18T14:12:27.220Z,15.37
2023-04-18T14:14:53.678Z,15.41
2023-04-18T14:17:20.125Z,14.85
2023-04-18T14:19:46.645Z,14.92
2023-04-18T14:22:13.003Z,15.63
2023-04-18T14:24:39.394Z,15.12
2023-04-18T14:27:05.830Z,14.95
2023-04-18T14:29:32.194Z,15.82
2023-04-18T14:31:58.601Z,15.11
2023-04-18T14:34:24.934Z,15.36
2023-04-18T14:36:51.333Z,15.58
2023-04-18T14:39:17.734Z,15.43
2023-04-18T14:41:45.754Z,15.85
2023-04-18T14:44:13.462Z,15.57
2023-04-18T14:46:39.797Z,15.53
2023-04-18T14:49:06.311Z,16.01
2023-04-18T14:51:32.755Z,16.19
2023-04-18T14:53:59.182Z,15.85
2023-04-18T14:56:25.657Z,16.23
2023-04-18T14:58:52.002Z,16.29
2023-04-18T15:01:18.612Z,17.28
2023-04-18T15:03:45.420Z,17.18
2023-04-18T15:06:12.063Z,16.77
2023-04-18T15:08:38.456Z,16.20
2023-04-18T15:11:05.320Z,16.49
2023-04-18T15:13:31.772Z,16.49
2023-04-18T15:15:58.398Z,16.58
2023-04-18T15:18:24.759Z,16.62
2023-04-18T15:20:51.157Z,16.94
2023-04-18T15:23:17.541Z,16.58
2023-04-18T15:25:43.914Z,16.90
2023-04-18T15:28:10.396Z,16.28
2023-04-18T15:30:36.719Z,16.60
2023-04-18T15:33:03.266Z,16.55
2023-04-18T15:35:29.699Z,17.07
2023-04-18T15:37:56.501Z,16.88
2023-04-18T15:40:22.917Z,17.23
2023-04-18T15:42:50.920Z,16.91
2023-04-18T15:45:17.350Z,17.94
2023-04-18T15:47:44.218Z,17.11
2023-04-18T15:50:11.048Z,17.40
2023-04-18T15:52:37.474Z,17.22
2023-04-18T15:55:04.910Z,16.43
2023-04-18T15:57:31.312Z,16.87
2023-04-18T15:59:59.325Z,16.89
2023-04-18T16:02:25.975Z,16.25
2023-04-18T16:04:52.407Z,16.34
2023-04-18T16:07:18.817Z,16.21
2023-04-18T16:09:45.204Z,16.34
2023-04-18T16:12:11.665Z,16.91
2023-04-18T16:14:38.056Z,16.36
2023-04-18T16:17:04.691Z,16.94
2023-04-18T16:19:31.139Z,16.92
2023-04-18T16:21:57.551Z,16.81
2023-04-18T16:24:25.591Z,17.28
2023-04-18T16:26:53.473Z,17.19
2023-04-18T16:29:19.880Z,16.67
2023-04-18T16:31:46.582Z,17.18
2023-04-18T16:34:13.331Z,17.48
2023-04-18T16:36:39.909Z,17.16
2023-04-18T16:39:06.253Z,17.57
2023-04-18T16:41:32.646Z,17.98
2023-04-18T16:43:59.009Z,18.11
2023-04-18T16:46:25.533Z,17.80
2023-04-18T16:48:52.647Z,17.69
2023-04-18T16:51:19.636Z,17.50
2023-04-18T16:53:47.455Z,17.32
2023-04-18T16:56:15.362Z,17.72
2023-04-18T16:58:41.752Z,17.48
2023-04-18T17:01:08.793Z,17.98
2023-04-18T17:03:36.588Z,17.55
2023-04-18T17:06:03.322Z,17.78
2023-04-18T17:08:31.939Z,17.08
2023-04-18T17:10:59.708Z,16.89
2023-04-18T17:13:27.275Z,17.02
2023-04-18T17:15:53.956Z,17.19
2023-04-18T17:18:21.847Z,17.39
2023-04-18T17:20:49.309Z,16.92
2023-04-18T17:23:15.854Z,17.16
2023-04-18T17:25:42.549Z,16.55
2023-04-18T17:28:09.538Z,16.62
2023-04-18T17:30:36.794Z,16.67
2023-04-18T17:33:03.270Z,16.44
2023-04-18T17:35:30.009Z,16.75
2023-04-18T17:37:56.792Z,16.33
2023-04-18T17:40:23.426Z,15.83
2023-04-18T17:42:50.581Z,16.23
2023-04-18T17:45:17.348Z,16.28
2023-04-18T17:47:43.784Z,15.88
2023-04-18T17:50:10.346Z,15.69
2023-04-18T17:52:37.289Z,15.61
2023-04-18T17:55:04.341Z,15.79
2023-04-18T17:57:32.934Z,15.61
2023-04-18T17:59:59.326Z,16.22
2023-04-18T18:02:28.249Z,15.59
2023-04-18T18:04:54.735Z,15.55
2023-04-18T18:07:21.234Z,15.25
2023-04-18T18:09:47.810Z,15.60
2023-04-18T18:12:14.632Z,15.16
2023-04-18T18:14:41.074Z,15.17
2023-04-18T18:17:07.672Z,14.86
2023-04-18T18:19:34.094Z,15.22
2023-04-18T18:22:00.551Z,14.85
2023-04-18T18:24:27.435Z,14.54
2023-04-18T18:26:54.032Z,14.81
2023-04-18T18:29:20.399Z,14.93
2023-04-18T18:31:46.904Z,14.75
2023-04-18T18:34:13.505Z,14.63
2023-04-18T18:36:40.190Z,14.72
2023-04-18T18:39:06.555Z,14.36
2023-04-18T18:41:33.069Z,14.60
2023-04-18T18:43:59.484Z,14.33
2023-04-18T18:46:27.651Z,14.60
2023-04-18T18:48:54.681Z,14.38
2023-04-18T18:51:22.046Z,14.20
2023-04-18T18:53:48.698Z,14.27
2023-04-18T18:56:15.350Z,14.51
2023-04-18T18:58:43.712Z,14.33
2023-04-18T19:01:11.395Z,14.29
2023-04-18T19:03:37.949Z,14.46
2023-04-18T19:06:05.802Z,14.10
2023-04-18T19:08:32.237Z,14.60
2023-04-18T19:10:58.685Z,14.31
2023-04-18T19:13:25.107Z,14.39
2023-04-18T19:15:51.906Z,14.53
2023-04-18T19:18:20.432Z,14.17
2023-04-18T19:20:47.032Z,14.14
2023-04-18T19:23:13.529Z,14.44
2023-04-18T19:25:39.920Z,13.70
2023-04-18T19:28:06.538Z,13.74
2023-04-18T19:30:32.978Z,13.80
2023-04-18T19:33:00.039Z,13.73
2023-04-18T19:35:26.454Z,13.47
2023-04-18T19:37:55.805Z,13.75
2023-04-18T19:40:23.727Z,13.67
2023-04-18T19:42:50.746Z,14.00
2023-04-18T19:45:17.140Z,13.91
2023-04-18T19:47:44.894Z,13.85
2023-04-18T19:50:11.930Z,13.92
2023-04-18T19:52:39.081Z,13.84
2023-04-18T19:55:05.615Z,14.14
2023-04-18T19:57:32.129Z,14.24
2023-04-18T19:59:58.584Z,14.08
2023-04-18T20:02:25.158Z,14.15
2023-04-18T20:04:51.924Z,14.06
2023-04-18T20:07:18.814Z,14.07
2023-04-18T20:09:45.321Z,13.94
2023-04-18T20:12:12.177Z,13.97
2023-04-18T20:14:38.662Z,13.75
2023-04-18T20:17:05.304Z,13.75
2023-04-18T20:19:31.828Z,13.60
2023-04-18T20:21:58.217Z,14.09
2023-04-18T20:24:27.889Z,13.43
2023-04-18T20:26:54.526Z,13.54
2023-04-18T20:29:20.883Z,14.15
2023-04-18T20:31:47.736Z,13.99
2023-04-18T20:34:14.078Z,13.71
2023-04-18T20:36:41.647Z,14.03
2023-04-18T20:39:08.367Z,13.70
2023-04-18T20:41:36.541Z,13.78
2023-04-18T20:44:05.441Z,13.58
2023-04-18T20:46:32.604Z,13.51
2023-04-18T20:48:59.494Z,13.63
2023-04-18T20:51:26.747Z,13.75
2023-04-18T20:53:53.973Z,13.44
2023-04-18T20:56:20.384Z,13.61
2023-04-18T20:58:46.975Z,13.35
2023-04-18T21:01:13.513Z,13.60
2023-04-18T21:03:40.036Z,13.89
2023-04-18T21:06:06.495Z,13.32
2023-04-18T21:08:35.044Z,13.92
2023-04-18T21:11:01.417Z,13.46
2023-04-18T21:13:27.790Z,13.72
2023-04-18T21:15:57.002Z,13.99
2023-04-18T21:18:23.614Z,13.83
2023-04-18T21:20:50.084Z,13.97
2023-04-18T21:23:18.238Z,14.25
2023-04-18T21:25:45.291Z,14.24
2023-04-18T21:28:11.754Z,13.88
2023-04-18T21:30:38.340Z,13.78
2023-04-18T21:33:04.793Z,13.65
2023-04-18T21:35:31.345Z,13.85
2023-04-18T21:37:57.792Z,13.82
2023-04-18T21:40:24.426Z,13.83
2023-04-18T21:42:53.886Z,13.61
2023-04-18T21:45:20.301Z,14.15
2023-04-18T21:47:46.842Z,13.87
2023-04-18T21:50:13.399Z,13.70
2023-04-18T21:52:39.912Z,13.98
2023-04-18T21:55:06.373Z,13.74
2023-04-18T21:57:32.914Z,13.47
2023-04-18T21:59:59.286Z,13.96
2023-04-18T22:02:26.206Z,13.72
2023-04-18T22:04:52.640Z,13.89
2023-04-18T22:07:19.010Z,13.62
2023-04-18T22:09:45.357Z,14.24
2023-04-18T22:12:14.197Z,14.25
2023-04-18T22:14:42.082Z,14.10
2023-04-18T22:17:09.434Z,13.85
2023-04-18T22:19:36.612Z,13.97
2023-04-18T22:22:03.050Z,13.53
2023-04-18T22:24:29.386Z,13.68
2023-04-18T22:26:55.802Z,14.34
2023-04-18T22:29:22.178Z,14.42
2023-04-18T22:31:48.532Z,14.49
2023-04-18T22:34:15.663Z,14.14
2023-04-18T22:36:42.777Z,14.63
2023-04-18T22:39:09.281Z,14.17
2023-04-18T22:41:35.720Z,14.24
2023-04-18T22:44:02.090Z,13.83
2023-04-18T22:46:28.635Z,13.83
2023-04-18T22:48:55.186Z,13.64
2023-04-18T22:51:23.769Z,13.50
2023-04-18T22:53:50.334Z,13.78
2023-04-18T22:56:16.701Z,13.58
2023-04-18T22:58:43.078Z,13.58
2023-04-18T23:01:09.471Z,13.22
2023-04-18T23:03:36.128Z,13.18
2023-04-18T23:06:02.565Z,13.51
2023-04-18T23:08:28.935Z,13.19
2023-04-18T23:10:55.442Z,13.72
2023-04-18T23:13:21.783Z,14.33
2023-04-18T23:15:48.209Z,14.56
2023-04-18T23:18:14.619Z,14.01
2023-04-18T23:20:40.965Z,13.98
2023-04-18T23:23:07.334Z,14.02
2023-04-18T23:25:33.849Z,14.07
2023-04-18T23:28:00.304Z,13.78
2023-04-18T23:30:26.751Z,14.11
2023-04-18T23:32:53.140Z,13.72
2023-04-18T23:35:19.588Z,13.94
2023-04-18T23:37:46.152Z,13.79
2023-04-18T23:40:12.579Z,14.08
2023-04-18T23:42:38.983Z,13.86
2023-04-18T23:45:05.958Z,13.66
2023-04-18T23:47:32.407Z,14.01
2023-04-18T23:49:58.824Z,13.55
2023-04-18T23:52:25.256Z,14.01
2023-04-18T23:54:51.914Z,13.58
2023-04-18T23:57:18.405Z,13.62
2023-04-18T23:59:44.756Z,13.55
